createdAt,value
2019-03-30T00:01:55.951Z,73.10
2019-03-30T00:04:27.225Z,74.70
2019-03-30T00:06:58.292Z,75.00
2019-03-30T00:09:29.465Z,77.20
2019-03-30T00:12:00.615Z,77.40
2019-03-30T00:14:31.871Z,78.50
2019-03-30T00:17:04.086Z,79.80
2019-03-30T00:19:35.396Z,79.90
2019-03-30T00:22:06.589Z,79.40
2019-03-30T00:24:37.855Z,78.50
2019-03-30T00:27:08.952Z,78.30
2019-03-30T00:29:40.141Z,77.10
2019-03-30T00:32:11.394Z,76.30
2019-03-30T00:34:42.600Z,76.20
2019-03-30T00:37:13.769Z,75.50
2019-03-30T00:39:44.964Z,74.90
2019-03-30T00:42:16.210Z,74.30
2019-03-30T00:44:47.426Z,74.30
2019-03-30T00:47:18.592Z,73.90
2019-03-30T00:49:50.242Z,73.40
2019-03-30T00:52:21.505Z,73.50
2019-03-30T00:54:52.622Z,73.40
2019-03-30T00:57:23.798Z,74.00
2019-03-30T00:59:55.064Z,74.20
2019-03-30T01:02:26.320Z,73.90
2019-03-30T01:04:57.579Z,74.10
2019-03-30T01:07:28.822Z,74.20
2019-03-30T01:09:59.990Z,74.20
2019-03-30T01:12:31.137Z,73.80
2019-03-30T01:15:02.411Z,73.90
2019-03-30T01:17:33.558Z,74.00
2019-03-30T01:20:05.352Z,73.10
2019-03-30T01:22:36.522Z,72.90
2019-03-30T01:25:08.128Z,72.90
2019-03-30T01:27:39.333Z,72.60
2019-03-30T01:30:22.550Z,72.60
2019-03-30T01:32:43.516Z,73.10
2019-03-30T01:35:14.800Z,73.60
2019-03-30T01:37:46.210Z,74.20
2019-03-30T01:40:17.419Z,74.40
2019-03-30T01:42:48.602Z,74.80
2019-03-30T01:45:19.881Z,75.20
2019-03-30T01:47:51.067Z,75.40
2019-03-30T01:50:22.342Z,75.70
2019-03-30T01:52:53.527Z,75.90
2019-03-30T01:55:24.717Z,75.60
2019-03-30T01:57:55.880Z,75.10
2019-03-30T02:00:28.166Z,75.40
2019-03-30T02:02:59.250Z,75.10
2019-03-30T02:05:30.529Z,75.10
2019-03-30T02:08:01.690Z,74.50
2019-03-30T02:10:48.835Z,74.00
2019-03-30T02:13:20.182Z,73.10
2019-03-30T02:15:51.410Z,72.30
2019-03-30T02:18:22.644Z,71.90
2019-03-30T02:20:53.901Z,71.80
2019-03-30T02:23:25.267Z,71.70
2019-03-30T02:25:56.558Z,72.10
2019-03-30T02:28:27.849Z,72.00
2019-03-30T02:30:59.146Z,72.20
2019-03-30T02:33:30.373Z,72.50
2019-03-30T02:36:01.632Z,72.90
2019-03-30T02:38:32.906Z,73.30
2019-03-30T02:41:04.243Z,73.20
2019-03-30T02:43:35.478Z,72.80
2019-03-30T02:46:06.822Z,73.20
2019-03-30T02:48:38.011Z,73.30
2019-03-30T02:51:09.417Z,73.80
2019-03-30T02:53:40.832Z,73.30
2019-03-30T02:56:12.060Z,73.30
2019-03-30T02:58:43.205Z,73.50
2019-03-30T03:01:14.431Z,73.40
2019-03-30T03:03:45.672Z,73.70
2019-03-30T03:06:17.035Z,73.50
2019-03-30T03:08:48.220Z,72.90
2019-03-30T03:11:19.487Z,72.30
2019-03-30T03:13:50.664Z,72.20
2019-03-30T03:16:22.031Z,71.60
2019-03-30T03:18:53.309Z,72.10
2019-03-30T03:21:24.604Z,72.40
2019-03-30T03:23:55.831Z,72.10
2019-03-30T03:26:27.065Z,71.60
2019-03-30T03:28:58.325Z,71.50
2019-03-30T03:31:29.709Z,71.80
2019-03-30T03:34:01.004Z,72.80
2019-03-30T03:36:32.318Z,73.80
2019-03-30T03:39:04.441Z,74.50
2019-03-30T03:41:35.735Z,75.60
2019-03-30T03:44:06.982Z,76.20
2019-03-30T03:46:38.286Z,76.90
2019-03-30T03:49:09.592Z,77.60
2019-03-30T03:51:41.050Z,77.60
2019-03-30T03:54:12.386Z,77.60
2019-03-30T03:56:45.451Z,77.80
2019-03-30T03:59:17.068Z,78.40
2019-03-30T04:01:51.405Z,78.80
2019-03-30T04:04:25.236Z,78.70
2019-03-30T04:07:01.200Z,78.10
2019-03-30T04:09:35.094Z,78.20
2019-03-30T04:12:08.513Z,78.30
2019-03-30T04:14:41.620Z,78.90
2019-03-30T04:17:12.896Z,78.50
2019-03-30T04:19:44.404Z,79.50
2019-03-30T04:22:15.759Z,80.20
2019-03-30T04:24:47.075Z,82.90
2019-03-30T04:27:18.332Z,82.80
2019-03-30T04:29:49.539Z,82.20
2019-03-30T04:32:20.844Z,81.80
2019-03-30T04:34:52.020Z,80.70
2019-03-30T04:37:23.266Z,80.60
2019-03-30T04:39:54.511Z,80.00
2019-03-30T04:42:25.778Z,79.30
2019-03-30T04:44:57.074Z,79.00
2019-03-30T04:47:28.311Z,78.80
2019-03-30T04:49:59.568Z,79.00
2019-03-30T04:52:30.994Z,79.20
2019-03-30T04:55:02.250Z,79.40
2019-03-30T04:57:33.566Z,79.60
2019-03-30T05:00:05.402Z,79.90
2019-03-30T05:02:36.638Z,79.70
2019-03-30T05:05:09.096Z,80.10
2019-03-30T05:07:40.392Z,80.30
2019-03-30T05:10:11.697Z,80.20
2019-03-30T05:12:43.004Z,80.30
2019-03-30T05:15:14.210Z,80.50
2019-03-30T05:17:47.852Z,80.60
2019-03-30T05:20:18.344Z,80.50
2019-03-30T05:22:51.385Z,80.30
2019-03-30T05:25:22.466Z,81.20
2019-03-30T05:27:53.794Z,81.10
2019-03-30T05:30:25.028Z,81.30
2019-03-30T05:33:05.614Z,81.10
2019-03-30T05:35:32.354Z,82.20
2019-03-30T05:38:03.690Z,81.50
2019-03-30T05:40:34.965Z,81.20
2019-03-30T05:43:06.242Z,81.30
2019-03-30T05:45:37.815Z,80.70
2019-03-30T05:48:09.033Z,80.80
2019-03-30T05:50:40.335Z,81.30
2019-03-30T05:53:11.929Z,80.20
2019-03-30T05:55:43.243Z,79.70
2019-03-30T05:58:14.529Z,79.90
2019-03-30T06:00:45.775Z,78.80
2019-03-30T06:03:17.074Z,76.70
2019-03-30T06:05:48.458Z,74.50
2019-03-30T06:08:19.694Z,71.40
2019-03-30T06:10:50.950Z,67.20
2019-03-30T06:13:22.287Z,63.70
2019-03-30T06:15:53.735Z,60.30
2019-03-30T06:18:25.099Z,58.40
2019-03-30T06:20:56.358Z,56.70
2019-03-30T06:23:27.623Z,54.40
2019-03-30T06:25:58.929Z,53.00
2019-03-30T06:28:30.726Z,51.30
2019-03-30T06:31:01.981Z,50.70
2019-03-30T06:33:33.227Z,49.20
2019-03-30T06:36:04.474Z,49.80
2019-03-30T06:38:35.660Z,50.50
2019-03-30T06:41:07.036Z,51.40
2019-03-30T06:43:38.306Z,50.30
2019-03-30T06:46:09.592Z,49.90
2019-03-30T06:48:40.766Z,50.70
2019-03-30T06:51:12.073Z,51.40
2019-03-30T06:53:43.318Z,48.70
2019-03-30T06:56:14.564Z,47.60
2019-03-30T06:58:45.721Z,44.70
2019-03-30T07:01:17.027Z,45.60
2019-03-30T07:03:48.381Z,45.00
2019-03-30T07:06:20.692Z,44.30
2019-03-30T07:08:54.107Z,43.60
2019-03-30T07:11:28.224Z,44.10
2019-03-30T07:14:02.821Z,43.60
2019-03-30T07:16:36.652Z,43.20
2019-03-30T07:19:07.820Z,44.40
2019-03-30T07:21:39.124Z,46.20
2019-03-30T07:24:10.418Z,46.80
2019-03-30T07:26:41.644Z,45.90
2019-03-30T07:29:12.852Z,46.30
2019-03-30T07:31:44.132Z,44.60
2019-03-30T07:34:15.367Z,43.30
2019-03-30T07:36:46.660Z,44.50
2019-03-30T07:39:17.937Z,41.90
2019-03-30T07:41:49.223Z,42.20
2019-03-30T07:44:20.491Z,42.70
2019-03-30T07:46:51.782Z,45.30
2019-03-30T07:49:23.052Z,47.00
2019-03-30T07:51:54.392Z,46.70
2019-03-30T07:54:25.706Z,48.00
2019-03-30T07:57:04.584Z,49.90
2019-03-30T07:59:29.899Z,49.80
2019-03-30T08:02:01.155Z,47.50
2019-03-30T08:04:32.361Z,46.20
2019-03-30T08:07:03.721Z,44.70
2019-03-30T08:09:37.216Z,43.50
2019-03-30T08:12:07.951Z,43.20
2019-03-30T08:14:39.347Z,41.90
2019-03-30T08:17:10.705Z,40.40
2019-03-30T08:19:41.942Z,41.10
2019-03-30T08:22:13.216Z,40.00
2019-03-30T08:24:44.554Z,40.70
2019-03-30T08:27:16.184Z,39.10
2019-03-30T08:29:47.380Z,38.30
2019-03-30T08:32:18.666Z,39.50
2019-03-30T08:34:49.959Z,39.20
2019-03-30T08:37:21.226Z,39.20
2019-03-30T08:39:52.457Z,37.80
2019-03-30T08:42:23.837Z,39.50
2019-03-30T08:44:55.095Z,38.60
2019-03-30T08:47:26.540Z,39.50
2019-03-30T08:49:57.816Z,38.20
2019-03-30T08:52:29.184Z,37.90
2019-03-30T08:55:00.478Z,38.70
2019-03-30T08:57:31.695Z,39.00
2019-03-30T09:00:03.003Z,39.80
2019-03-30T09:02:34.250Z,39.40
2019-03-30T09:05:06.466Z,40.00
2019-03-30T09:07:37.773Z,38.60
2019-03-30T09:10:09.969Z,41.00
2019-03-30T09:12:41.234Z,38.80
2019-03-30T09:15:12.502Z,38.20
2019-03-30T09:17:43.708Z,36.90
2019-03-30T09:20:15.017Z,35.10
2019-03-30T09:22:46.354Z,33.50
2019-03-30T09:25:17.687Z,31.90
2019-03-30T09:27:48.833Z,31.60
2019-03-30T09:30:20.523Z,32.60
2019-03-30T09:32:51.865Z,33.30
2019-03-30T09:35:23.153Z,32.40
2019-03-30T09:37:54.480Z,32.90
2019-03-30T09:40:25.734Z,33.90
2019-03-30T09:42:57.003Z,33.50
2019-03-30T09:45:28.346Z,33.70
2019-03-30T09:47:59.554Z,33.10
2019-03-30T09:50:30.922Z,34.40
2019-03-30T09:53:02.235Z,32.70
2019-03-30T09:55:33.556Z,32.80
2019-03-30T09:58:04.880Z,33.80
2019-03-30T10:00:36.204Z,32.90
2019-03-30T10:03:07.503Z,31.40
2019-03-30T10:05:38.877Z,31.70
2019-03-30T10:08:10.065Z,31.70
2019-03-30T10:10:41.354Z,32.20
2019-03-30T10:13:12.578Z,29.60
2019-03-30T10:15:43.962Z,31.50
2019-03-30T10:18:15.163Z,31.30
2019-03-30T10:20:46.465Z,31.30
2019-03-30T10:23:17.605Z,30.90
2019-03-30T10:25:48.878Z,29.10
2019-03-30T10:28:20.209Z,28.20
2019-03-30T10:30:51.511Z,29.80
2019-03-30T10:33:22.797Z,32.30
2019-03-30T10:35:54.139Z,32.50
2019-03-30T10:38:25.439Z,32.60
2019-03-30T10:40:56.758Z,32.50
2019-03-30T10:43:28.034Z,33.70
2019-03-30T10:45:59.289Z,34.60
2019-03-30T10:48:30.516Z,33.70
2019-03-30T10:51:01.852Z,34.30
2019-03-30T10:53:33.199Z,34.50
2019-03-30T10:56:04.647Z,33.80
2019-03-30T10:58:35.861Z,35.80
2019-03-30T11:01:07.187Z,34.70
2019-03-30T11:03:38.364Z,33.00
2019-03-30T11:06:09.891Z,36.50
2019-03-30T11:08:41.187Z,35.80
2019-03-30T11:11:12.442Z,36.60
2019-03-30T11:13:43.708Z,36.60
2019-03-30T11:16:15.036Z,37.30
2019-03-30T11:18:46.261Z,36.60
2019-03-30T11:21:17.567Z,37.50
2019-03-30T11:23:48.874Z,37.00
2019-03-30T11:26:20.100Z,36.30
2019-03-30T11:28:51.316Z,33.40
2019-03-30T11:31:22.673Z,35.00
2019-03-30T11:33:53.900Z,36.90
2019-03-30T11:36:25.097Z,35.40
2019-03-30T11:38:56.325Z,34.80
2019-03-30T11:41:27.618Z,35.00
2019-03-30T11:43:58.896Z,34.40
2019-03-30T11:46:30.191Z,35.80
2019-03-30T11:49:01.458Z,36.00
2019-03-30T11:51:32.703Z,35.30
2019-03-30T11:54:05.413Z,35.00
2019-03-30T11:56:36.876Z,33.80
2019-03-30T11:59:08.073Z,33.00
2019-03-30T12:01:39.399Z,32.00
2019-03-30T12:04:10.895Z,32.80
2019-03-30T12:06:42.102Z,33.90
2019-03-30T12:09:13.389Z,33.40
2019-03-30T12:12:03.489Z,33.20
2019-03-30T12:14:34.786Z,35.50
2019-03-30T12:17:06.102Z,34.90
2019-03-30T12:19:37.390Z,34.20
2019-03-30T12:22:08.704Z,35.50
2019-03-30T12:24:39.894Z,36.50
2019-03-30T12:27:11.206Z,35.70
2019-03-30T12:29:44.494Z,37.00
2019-03-30T12:32:15.447Z,37.00
2019-03-30T12:34:46.685Z,35.80
2019-03-30T12:37:18.023Z,36.50
2019-03-30T12:39:49.339Z,36.50
2019-03-30T12:42:20.665Z,35.30
2019-03-30T12:44:51.922Z,32.80
2019-03-30T12:47:23.178Z,30.60
2019-03-30T12:49:54.456Z,32.20
2019-03-30T12:52:26.601Z,31.90
2019-03-30T12:54:58.078Z,32.80
2019-03-30T12:57:29.374Z,32.80
2019-03-30T13:00:00.600Z,32.30
2019-03-30T13:02:31.927Z,28.90
2019-03-30T13:05:03.189Z,29.40
2019-03-30T13:07:34.550Z,28.70
2019-03-30T13:10:07.131Z,29.00
2019-03-30T13:12:38.314Z,27.80
2019-03-30T13:15:09.839Z,26.70
2019-03-30T13:17:41.016Z,27.10
2019-03-30T13:20:12.427Z,24.80
2019-03-30T13:22:43.749Z,24.00
2019-03-30T13:25:15.007Z,25.60
2019-03-30T13:27:46.350Z,26.20
2019-03-30T13:30:17.967Z,27.80
2019-03-30T13:32:53.179Z,27.60
2019-03-30T13:35:23.080Z,24.70
2019-03-30T13:37:54.306Z,25.90
2019-03-30T13:40:25.495Z,26.80
2019-03-30T13:42:56.811Z,26.40
2019-03-30T13:45:28.143Z,26.50
2019-03-30T13:47:59.453Z,26.90
2019-03-30T13:50:31.163Z,27.90
2019-03-30T13:53:02.726Z,26.80
2019-03-30T13:55:33.922Z,25.30
2019-03-30T13:58:05.327Z,23.10
2019-03-30T14:00:36.625Z,23.20
2019-03-30T14:03:07.981Z,22.80
2019-03-30T14:05:39.307Z,23.20
2019-03-30T14:08:10.577Z,23.20
2019-03-30T14:10:41.860Z,22.30
2019-03-30T14:13:13.230Z,23.90
2019-03-30T14:15:44.492Z,23.00
2019-03-30T14:18:15.778Z,23.10
2019-03-30T14:20:47.072Z,22.90
2019-03-30T14:23:18.352Z,23.50
2019-03-30T14:25:49.638Z,23.80
2019-03-30T14:28:20.944Z,22.60
2019-03-30T14:30:52.222Z,21.70
2019-03-30T14:33:23.571Z,21.80
2019-03-30T14:35:54.845Z,21.50
2019-03-30T14:38:26.210Z,22.40
2019-03-30T14:40:57.417Z,23.00
2019-03-30T14:43:28.783Z,22.70
2019-03-30T14:46:00.109Z,25.10
2019-03-30T14:48:31.405Z,22.40
2019-03-30T14:51:02.691Z,24.00
2019-03-30T14:53:34.113Z,23.00
2019-03-30T14:56:05.497Z,22.30
2019-03-30T14:58:36.815Z,23.10
2019-03-30T15:01:08.127Z,22.80
2019-03-30T15:03:39.464Z,23.00
2019-03-30T15:06:10.670Z,23.50
2019-03-30T15:08:41.928Z,24.90
2019-03-30T15:11:13.134Z,26.80
2019-03-30T15:13:44.489Z,30.00
2019-03-30T15:16:15.746Z,29.00
2019-03-30T15:18:47.072Z,31.20
2019-03-30T15:21:18.347Z,31.80
2019-03-30T15:23:49.705Z,32.50
2019-03-30T15:26:22.203Z,31.40
2019-03-30T15:28:53.669Z,32.10
2019-03-30T15:31:24.903Z,33.40
2019-03-30T15:33:56.290Z,32.90
2019-03-30T15:36:27.558Z,33.60
2019-03-30T15:38:58.892Z,33.40
2019-03-30T15:41:30.193Z,33.00
2019-03-30T15:44:01.413Z,33.10
2019-03-30T15:46:32.723Z,33.30
2019-03-30T15:49:04.019Z,33.40
2019-03-30T15:51:37.584Z,35.30
2019-03-30T15:54:08.233Z,34.30
2019-03-30T15:56:39.512Z,34.60
2019-03-30T15:59:10.735Z,35.40
2019-03-30T16:01:42.051Z,35.30
2019-03-30T16:04:13.368Z,35.20
2019-03-30T16:06:44.573Z,35.50
2019-03-30T16:09:15.924Z,35.90
2019-03-30T16:11:47.537Z,35.50
2019-03-30T16:14:18.893Z,36.90
2019-03-30T16:16:50.249Z,36.60
2019-03-30T16:19:21.565Z,37.90
2019-03-30T16:21:52.872Z,36.20
2019-03-30T16:24:24.199Z,36.60
2019-03-30T16:26:55.475Z,37.30
2019-03-30T16:29:26.812Z,37.40
2019-03-30T16:31:58.122Z,37.70
2019-03-30T16:34:29.413Z,36.30
2019-03-30T16:37:00.719Z,37.20
2019-03-30T16:39:34.792Z,37.90
2019-03-30T16:42:05.014Z,37.40
2019-03-30T16:44:36.330Z,36.90
2019-03-30T16:47:07.626Z,37.10
2019-03-30T16:49:38.896Z,37.20
2019-03-30T16:52:10.159Z,38.50
2019-03-30T16:54:41.415Z,39.80
2019-03-30T16:57:12.701Z,39.40
2019-03-30T16:59:44.081Z,40.20
2019-03-30T17:02:15.387Z,40.20
2019-03-30T17:04:46.704Z,40.10
2019-03-30T17:07:18.056Z,40.40
2019-03-30T17:09:49.354Z,40.60
2019-03-30T17:12:20.640Z,41.50
2019-03-30T17:14:51.997Z,39.50
2019-03-30T17:17:23.305Z,38.70
2019-03-30T17:19:54.663Z,39.70
2019-03-30T17:22:25.967Z,39.80
2019-03-30T17:24:58.591Z,40.00
2019-03-30T17:27:29.840Z,40.70
2019-03-30T17:30:01.164Z,41.30
2019-03-30T17:32:32.421Z,42.50
2019-03-30T17:35:03.678Z,43.20
2019-03-30T17:37:34.897Z,44.10
2019-03-30T17:40:07.197Z,44.50
2019-03-30T17:42:39.053Z,45.30
2019-03-30T17:45:11.527Z,45.70
2019-03-30T17:47:42.911Z,45.70
2019-03-30T17:50:14.986Z,47.00
2019-03-30T17:52:46.225Z,46.10
2019-03-30T17:55:17.520Z,47.70
2019-03-30T17:57:48.845Z,48.80
2019-03-30T18:00:20.643Z,49.20
2019-03-30T18:02:51.948Z,46.80
2019-03-30T18:05:23.247Z,50.30
2019-03-30T18:07:54.513Z,50.30
2019-03-30T18:10:25.661Z,50.00
2019-03-30T18:12:56.984Z,50.60
2019-03-30T18:15:28.204Z,52.60
2019-03-30T18:17:59.548Z,51.70
2019-03-30T18:20:30.824Z,49.70
2019-03-30T18:23:02.040Z,51.60
2019-03-30T18:25:33.297Z,49.80
2019-03-30T18:28:04.504Z,51.20
2019-03-30T18:30:38.973Z,50.60
2019-03-30T18:33:10.387Z,49.80
2019-03-30T18:35:41.873Z,49.60
2019-03-30T18:38:13.396Z,49.70
2019-03-30T18:40:44.806Z,49.80
2019-03-30T18:43:16.133Z,50.60
2019-03-30T18:45:47.438Z,49.90
2019-03-30T18:48:19.704Z,49.70
2019-03-30T18:50:50.961Z,49.40
2019-03-30T18:53:22.349Z,50.50
2019-03-30T18:55:53.755Z,50.10
2019-03-30T18:58:25.060Z,50.00
2019-03-30T19:00:56.365Z,49.80
2019-03-30T19:03:27.694Z,48.80
2019-03-30T19:05:58.909Z,49.60
2019-03-30T19:08:30.207Z,49.30
2019-03-30T19:11:01.552Z,49.40
2019-03-30T19:13:32.834Z,49.00
2019-03-30T19:16:04.165Z,48.70
2019-03-30T19:18:35.502Z,48.90
2019-03-30T19:21:06.749Z,50.10
2019-03-30T19:23:38.055Z,50.20
2019-03-30T19:26:09.362Z,49.90
2019-03-30T19:28:45.292Z,49.60
2019-03-30T19:31:13.538Z,49.70
2019-03-30T19:33:44.861Z,49.80
2019-03-30T19:36:16.147Z,51.00
2019-03-30T19:38:47.523Z,52.80
2019-03-30T19:41:18.840Z,53.20
2019-03-30T19:43:50.218Z,53.50
2019-03-30T19:46:21.524Z,52.70
2019-03-30T19:48:52.819Z,53.00
2019-03-30T19:51:24.137Z,53.50
2019-03-30T19:53:55.522Z,54.30
2019-03-30T19:56:27.178Z,53.50
2019-03-30T19:59:10.123Z,54.20
2019-03-30T20:01:31.582Z,54.80
2019-03-30T20:04:03.027Z,53.60
2019-03-30T20:06:34.324Z,54.10
2019-03-30T20:09:08.491Z,54.00
2019-03-30T20:11:39.691Z,53.80
2019-03-30T20:14:10.994Z,54.00
2019-03-30T20:16:42.518Z,54.10
2019-03-30T20:19:13.766Z,52.20
2019-03-30T20:21:44.994Z,53.80
2019-03-30T20:24:16.250Z,53.00
2019-03-30T20:26:47.465Z,53.00
2019-03-30T20:29:25.247Z,53.20
2019-03-30T20:31:51.711Z,53.00
2019-03-30T20:34:23.275Z,53.40
2019-03-30T20:36:54.581Z,53.80
2019-03-30T20:39:25.979Z,54.40
2019-03-30T20:41:57.314Z,55.00
2019-03-30T20:44:28.512Z,55.80
2019-03-30T20:46:59.850Z,55.90
2019-03-30T20:49:31.123Z,55.40
2019-03-30T20:52:02.466Z,55.30
2019-03-30T20:54:33.756Z,56.00
2019-03-30T20:57:05.032Z,56.00
2019-03-30T20:59:40.188Z,56.90
2019-03-30T21:02:09.346Z,56.70
2019-03-30T21:04:40.582Z,57.30
2019-03-30T21:07:11.788Z,57.40
2019-03-30T21:09:42.985Z,57.80
2019-03-30T21:12:14.224Z,58.20
2019-03-30T21:14:45.438Z,58.50
2019-03-30T21:17:16.714Z,59.00
2019-03-30T21:19:47.982Z,59.20
2019-03-30T21:22:19.317Z,59.50
2019-03-30T21:24:50.657Z,59.00
2019-03-30T21:27:21.850Z,58.90
2019-03-30T21:29:55.218Z,58.90
2019-03-30T21:32:26.593Z,58.70
2019-03-30T21:34:57.872Z,58.50
2019-03-30T21:37:29.227Z,58.50
2019-03-30T21:40:00.523Z,58.80
2019-03-30T21:42:31.821Z,58.50
2019-03-30T21:45:03.045Z,58.80
2019-03-30T21:47:34.383Z,58.20
2019-03-30T21:50:06.409Z,59.30
2019-03-30T21:52:37.666Z,59.50
2019-03-30T21:55:09.442Z,59.40
2019-03-30T21:57:40.719Z,59.00
2019-03-30T22:00:12.119Z,59.10
2019-03-30T22:02:43.402Z,60.30
2019-03-30T22:05:14.667Z,60.60
2019-03-30T22:07:45.855Z,60.00
2019-03-30T22:10:24.522Z,59.50
2019-03-30T22:12:55.855Z,59.80
2019-03-30T22:15:29.046Z,59.50
2019-03-30T22:18:00.363Z,59.50
2019-03-30T22:20:31.668Z,60.20
2019-03-30T22:23:02.865Z,59.80
2019-03-30T22:25:34.163Z,60.60
2019-03-30T22:28:05.480Z,61.60
2019-03-30T22:30:36.778Z,63.30
2019-03-30T22:33:08.110Z,62.00
2019-03-30T22:35:39.327Z,62.50
2019-03-30T22:38:10.554Z,61.80
2019-03-30T22:40:41.800Z,61.60
2019-03-30T22:43:13.067Z,60.80
2019-03-30T22:45:44.373Z,61.00
2019-03-30T22:48:15.680Z,61.00
2019-03-30T22:50:46.975Z,60.70
2019-03-30T22:53:18.276Z,61.30
2019-03-30T22:55:49.558Z,60.00
2019-03-30T22:58:20.858Z,59.30
2019-03-30T23:01:13.596Z,59.40
2019-03-30T23:03:44.833Z,59.50
2019-03-30T23:06:16.129Z,60.90
2019-03-30T23:08:47.445Z,60.90
2019-03-30T23:11:18.692Z,61.00
2019-03-30T23:13:50.008Z,61.90
2019-03-30T23:16:21.348Z,62.80
2019-03-30T23:18:52.611Z,64.20
2019-03-30T23:21:23.863Z,65.00
2019-03-30T23:23:55.165Z,65.90
2019-03-30T23:26:26.453Z,65.60
2019-03-30T23:28:59.486Z,65.10
2019-03-30T23:31:30.614Z,65.50
2019-03-30T23:34:01.941Z,63.20
2019-03-30T23:36:33.247Z,62.80
2019-03-30T23:39:06.483Z,61.60
2019-03-30T23:41:37.800Z,61.10
2019-03-30T23:44:09.082Z,60.20
2019-03-30T23:46:40.307Z,61.60
2019-03-30T23:49:11.599Z,61.80
2019-03-30T23:51:42.846Z,61.30
2019-03-30T23:54:16.292Z,61.80
2019-03-30T23:56:48.569Z,60.60
2019-03-30T23:59:19.905Z,60.30
